Portada
METAR-TAF:

METAR-TAF

Aeroports :

Keene, Nova Hampshire, Estats Units d'Amèrica

latitud: 42-54N, longitud: 072-16W, altitud: 149 m

Observació

L'informe es va fer fa 55 minuts, a les 21:56 UTC
Vent 8 kt del Sud
Temperatura 24°C
Humitat 69%
Pressió 1008 hPa
Visibilitat: 16.1 km
Cel cobert a una alçada de 9000 ft

METAR: KEEN 192156Z AUTO 18008KT 10SM OVC090 24/18 A2978 RMK AO2 SLP086 T02390178 PNO $

Hora: 18:51 (22:51 UTC)


TAF: manca

Observacions i pronòstics meteorològics de més de 4000 aeroports (METAR i TAF).

Les estacions disponibles són els punts grocs i vermells al mapa.

Posi el ratolí al punt desitjat per veure el nom de l'estació.

Feu clic per veure les observacions i els pronòstics meteorològics.

Per canviar el mapa: feu clic els botons verds amb una creu de color negre per apropar; al botó verd amb un guió per allunyar la imatge; o en les fletxes verdes per a mapes adjacents.


METAR-TAF: